Main page
METAR-TAF:

METAR-TAF

Airports :

Perpignan–Rivesaltes Airport

Perpignan, France

latitude: 42-44N, longitude: 002-52E, elevation: 43 m

Current weather observation

The report was made 43 minutes ago, at 22:30 UTC
Wind 7 kt from the West/Northwest
Temperature 15°C
Humidity 72%
Pressure 1024 hPa
Visibility 10 km or more
Scattered clouds at a height of 6400 ft

METAR: LFMP 282230Z AUTO 29007KT 9999 SCT064 15/10 Q1024

Time: 00:13 (23:13 UTC)

Forecast

The report was made 5 hours and 49 minutes ago, at 17:24 UTC
Forecast valid from 28 at 17 UTC to 29 at 15 UTC
Wind 4 kt from variable directions
Visibility 10 km or more
Scattered clouds at a height of 4000 ft
Broken clouds at a height of 6000 ft
Becoming
from 29 at 02 UTC to 29 at 05 UTC
Visibility 10 km or more
no clouds below 1500 m and no cumulonimbus

TAF: LFMP 281724Z 2817/2915 VRB04KT 9999 SCT040 BKN060 BECMG 2902/2905 CAVOK

Weather observations and forecasts of more than 4000 airports (METAR and TAF reports).

The available stations are represented by yellow and red dots on the map.

Hover mouse over dot to see the name of the station.

Then click to see weather observations and forecasts.

To change the map : click on the green buttons with a black cross to zoom in, on the green button with a dash to zoom out, or on the green arrows for adjacent maps.


METAR-TAF: